Time,TemperatureF,DewpointF,PressureIn,WindDirection,WindDirectionDegrees,WindSpeedMPH,WindSpeedGustMPH,Humidity,HourlyPrecipIn,Conditions,Clouds,dailyrainin,SoftwareType,DateUTC
2013-01-05 00:00:00,11.1,-6.0,23.51,North,4,0.0,0.0,45,0.00,,,0.00,WeatherTracker,2013-01-05 07:00:00,
2013-01-05 00:05:00,10.9,-6.2,23.51,North,4,0.0,0.0,45,0.00,,,0.00,WeatherTracker,2013-01-05 07:05:00,
2013-01-05 00:10:00,10.6,-6.5,23.51,North,4,0.0,0.0,45,0.00,,,0.00,WeatherTracker,2013-01-05 07:10:00,
2013-01-05 00:21:00,10.6,-6.5,23.51,North,4,0.0,0.0,45,0.00,,,0.00,WeatherTracker,2013-01-05 07:21:00,
2013-01-05 00:25:00,10.2,-6.9,23.51,North,4,0.0,0.0,45,0.00,,,0.00,WeatherTracker,2013-01-05 07:25:00,
2013-01-05 00:36:00,10.0,-7.0,23.51,North,4,0.0,0.0,45,0.00,,,0.00,WeatherTracker,2013-01-05 07:36:00,
2013-01-05 00:46:00,9.5,-7.5,23.51,North,4,0.0,0.0,45,0.00,,,0.00,WeatherTracker,2013-01-05 07:46:00,
2013-01-05 00:55:00,9.5,-7.5,23.51,North,4,0.0,0.0,45,0.00,,,0.00,WeatherTracker,2013-01-05 07:55:00,
2013-01-05 01:05:00,9.1,-7.8,23.51,North,4,0.0,0.0,45,0.00,,,0.00,WeatherTracker,2013-01-05 08:05:00,
2013-01-05 01:11:00,9.3,-7.7,23.51,North,4,0.0,0.0,45,0.00,,,0.00,WeatherTracker,2013-01-05 08:11:00,
2013-01-05 01:21:00,9.3,-7.7,23.51,North,4,0.0,0.0,45,0.00,,,0.00,WeatherTracker,2013-01-05 08:21:00,
2013-01-05 01:31:00,9.3,-7.7,23.51,North,4,0.0,0.0,45,0.00,,,0.00,WeatherTracker,2013-01-05 08:31:00,
2013-01-05 01:40:00,8.6,-8.3,23.51,North,4,0.0,0.0,45,0.00,,,0.00,WeatherTracker,2013-01-05 08:40:00,
2013-01-05 01:50:00,8.6,-8.3,23.51,North,4,0.0,0.0,45,0.00,,,0.00,WeatherTracker,2013-01-05 08:50:00,
2013-01-05 01:55:00,8.2,-8.7,23.51,North,4,0.0,0.0,45,0.00,,,0.00,WeatherTracker,2013-01-05 08:55:00,
2013-01-05 02:00:00,8.4,-8.5,23.51,North,4,0.0,0.0,45,0.00,,,0.00,WeatherTracker,2013-01-05 09:00:00,
2013-01-05 02:05:00,8.2,-8.7,23.51,North,4,0.0,0.0,45,0.00,,,0.00,WeatherTracker,2013-01-05 09:05:00,
2013-01-05 02:10:00,8.1,-8.8,23.51,North,4,0.0,0.0,45,0.00,,,0.00,WeatherTracker,2013-01-05 09:10:00,
2013-01-05 02:16:00,8.2,-8.7,23.51,North,4,0.0,0.0,45,0.00,,,0.00,WeatherTracker,2013-01-05 09:16:00,
2013-01-05 02:25:00,8.1,-8.8,23.51,North,4,0.0,0.0,45,0.00,,,0.00,WeatherTracker,2013-01-05 09:25:00,
2013-01-05 02:30:00,7.7,-9.2,23.51,North,4,0.0,0.0,45,0.00,,,0.00,WeatherTracker,2013-01-05 09:30:00,
2013-01-05 02:40:00,7.9,-9.0,23.51,North,4,0.0,0.0,45,0.00,,,0.00,WeatherTracker,2013-01-05 09:40:00,
2013-01-05 02:45:00,7.9,-9.0,23.51,North,4,0.0,0.0,45,0.00,,,0.00,WeatherTracker,2013-01-05 09:45:00,
2013-01-05 02:51:00,7.7,-9.2,23.51,North,4,0.0,0.0,45,0.00,,,0.00,WeatherTracker,2013-01-05 09:51:00,
2013-01-05 03:00:00,7.3,-9.5,23.51,North,4,0.0,0.0,45,0.00,,,0.00,WeatherTracker,2013-01-05 10:00:00,
2013-01-05 03:06:00,7.5,-9.3,23.51,North,4,0.0,0.0,45,0.00,,,0.00,WeatherTracker,2013-01-05 10:06:00,
2013-01-05 03:15:00,7.5,-9.3,23.51,North,4,0.0,0.0,45,0.00,,,0.00,WeatherTracker,2013-01-05 10:15:00,
2013-01-05 03:20:00,7.3,-9.5,23.51,North,4,0.0,0.0,45,0.00,,,0.00,WeatherTracker,2013-01-05 10:20:00,
2013-01-05 03:30:00,7.3,-9.5,23.51,North,4,0.0,0.0,45,0.00,,,0.00,WeatherTracker,2013-01-05 10:30:00,
2013-01-05 03:35:00,7.2,-9.7,23.51,North,4,0.0,0.0,45,0.00,,,0.00,WeatherTracker,2013-01-05 10:35:00,
2013-01-05 03:40:00,7.2,-9.7,23.51,North,4,0.0,0.0,45,0.00,,,0.00,WeatherTracker,2013-01-05 10:40:00,
2013-01-05 03:45:00,7.2,-9.7,23.51,North,4,0.0,0.0,45,0.00,,,0.00,WeatherTracker,2013-01-05 10:45:00,
2013-01-05 03:50:00,7.2,-9.7,23.51,North,4,0.0,0.0,45,0.00,,,0.00,WeatherTracker,2013-01-05 10:50:00,
2013-01-05 03:55:00,6.8,-10.0,23.51,North,4,0.0,0.0,45,0.00,,,0.00,WeatherTracker,2013-01-05 10:55:00,
2013-01-05 04:05:00,6.8,-10.0,23.51,North,4,0.0,0.0,45,0.00,,,0.00,WeatherTracker,2013-01-05 11:05:00,
2013-01-05 04:10:00,6.8,-10.0,23.51,North,4,0.0,0.0,45,0.00,,,0.00,WeatherTracker,2013-01-05 11:10:00,
2013-01-05 04:15:00,6.6,-10.2,23.51,North,4,0.0,0.0,45,0.00,,,0.00,WeatherTracker,2013-01-05 11:15:00,
2013-01-05 04:20:00,6.8,-10.0,23.51,North,4,0.0,0.0,45,0.00,,,0.00,WeatherTracker,2013-01-05 11:20:00,
2013-01-05 04:26:00,6.6,-10.2,23.51,North,4,0.0,0.0,45,0.00,,,0.00,WeatherTracker,2013-01-05 11:26:00,
2013-01-05 04:36:00,6.3,-10.5,23.51,North,4,0.0,0.0,45,0.00,,,0.00,WeatherTracker,2013-01-05 11:36:00,
2013-01-05 04:46:00,6.6,-10.2,23.51,North,4,0.0,0.0,45,0.00,,,0.00,WeatherTracker,2013-01-05 11:46:00,
2013-01-05 04:55:00,7.0,-9.8,23.51,North,4,0.0,0.0,45,0.00,,,0.00,WeatherTracker,2013-01-05 11:55:00,
2013-01-05 05:05:00,6.3,-10.5,23.51,North,4,0.0,0.0,45,0.00,,,0.00,WeatherTracker,2013-01-05 12:05:00,
2013-01-05 05:10:00,6.4,-10.3,23.51,North,4,0.0,0.0,45,0.00,,,0.00,WeatherTracker,2013-01-05 12:10:00,
2013-01-05 05:20:00,6.4,-10.3,23.51,North,4,0.0,0.0,45,0.00,,,0.00,WeatherTracker,2013-01-05 12:20:00,
2013-01-05 05:26:00,6.4,-10.3,23.51,North,4,0.0,0.0,45,0.00,,,0.00,WeatherTracker,2013-01-05 12:26:00,
2013-01-05 05:35:00,6.1,-10.7,23.51,North,4,0.0,0.0,45,0.00,,,0.00,WeatherTracker,2013-01-05 12:35:00,
2013-01-05 05:40:00,5.9,-10.8,23.51,North,4,0.0,0.0,45,0.00,,,0.00,WeatherTracker,2013-01-05 12:40:00,
2013-01-05 05:50:00,6.1,-10.7,23.51,North,4,0.0,0.0,45,0.00,,,0.00,WeatherTracker,2013-01-05 12:50:00,
2013-01-05 05:55:00,6.3,-10.5,23.51,North,4,0.0,0.0,45,0.00,,,0.00,WeatherTracker,2013-01-05 12:55:00,
2013-01-05 06:01:00,6.4,-10.3,23.51,North,4,0.0,0.0,45,0.00,,,0.00,WeatherTracker,2013-01-05 13:01:00,
2013-01-05 06:11:00,6.4,-10.3,23.51,North,4,0.0,0.0,45,0.00,,,0.00,WeatherTracker,2013-01-05 13:11:00,
2013-01-05 06:20:00,6.1,-10.7,23.54,North,4,0.0,0.0,45,0.00,,,0.00,WeatherTracker,2013-01-05 13:20:00,
2013-01-05 06:26:00,6.1,-10.7,23.54,North,4,0.0,0.0,45,0.00,,,0.00,WeatherTracker,2013-01-05 13:26:00,
2013-01-05 06:35:00,6.3,-10.5,23.54,North,4,0.0,0.0,45,0.00,,,0.00,WeatherTracker,2013-01-05 13:35:00,
2013-01-05 06:40:00,6.3,-10.5,23.54,North,4,0.0,0.0,45,0.00,,,0.00,WeatherTracker,2013-01-05 13:40:00,
2013-01-05 06:46:00,6.1,-10.7,23.54,North,4,0.0,0.0,45,0.00,,,0.00,WeatherTracker,2013-01-05 13:46:00,
2013-01-05 06:55:00,5.7,-11.0,23.54,North,4,0.0,0.0,45,0.00,,,0.00,WeatherTracker,2013-01-05 13:55:00,
2013-01-05 07:05:00,5.9,-10.8,23.56,North,4,0.0,0.0,45,0.00,,,0.00,WeatherTracker,2013-01-05 14:05:00,
2013-01-05 07:10:00,6.1,-10.7,23.56,North,4,0.0,0.0,45,0.00,,,0.00,WeatherTracker,2013-01-05 14:10:00,
2013-01-05 07:15:00,6.3,-10.5,23.56,North,4,0.0,0.0,45,0.00,,,0.00,WeatherTracker,2013-01-05 14:15:00,
2013-01-05 07:25:00,6.4,-10.3,23.56,North,4,0.0,0.0,45,0.00,,,0.00,WeatherTracker,2013-01-05 14:25:00,
2013-01-05 07:31:00,6.1,-10.7,23.56,North,4,0.0,0.0,45,0.00,,,0.00,WeatherTracker,2013-01-05 14:31:00,
2013-01-05 07:40:00,6.3,-10.5,23.56,North,4,0.0,0.0,45,0.00,,,0.00,WeatherTracker,2013-01-05 14:40:00,
2013-01-05 07:46:00,6.4,-10.3,23.56,North,4,0.0,0.0,45,0.00,,,0.00,WeatherTracker,2013-01-05 14:46:00,
2013-01-05 07:55:00,6.4,-10.3,23.56,North,4,0.0,0.0,45,0.00,,,0.00,WeatherTracker,2013-01-05 14:55:00,
2013-01-05 08:00:00,6.6,-10.2,23.56,North,4,0.0,0.0,45,0.00,,,0.00,WeatherTracker,2013-01-05 15:00:00,
2013-01-05 08:06:00,6.8,-10.0,23.56,North,4,0.0,0.0,45,0.00,,,0.00,WeatherTracker,2013-01-05 15:06:00,
2013-01-05 08:15:00,7.0,-9.8,23.56,North,4,0.0,0.0,45,0.00,,,0.00,WeatherTracker,2013-01-05 15:15:00,
2013-01-05 08:21:00,7.3,-9.5,23.56,North,4,0.0,0.0,45,0.00,,,0.00,WeatherTracker,2013-01-05 15:21:00,
2013-01-05 08:31:00,7.9,-9.0,23.56,North,4,0.0,0.0,45,0.00,,,0.00,WeatherTracker,2013-01-05 15:31:00,
2013-01-05 08:40:00,8.4,-8.5,23.56,North,4,0.0,0.0,45,0.00,,,0.00,WeatherTracker,2013-01-05 15:40:00,
2013-01-05 08:46:00,9.1,-7.8,23.56,North,4,0.0,0.0,45,0.00,,,0.00,WeatherTracker,2013-01-05 15:46:00,
2013-01-05 08:55:00,10.0,-7.0,23.56,North,4,0.0,0.0,45,0.00,,,0.00,WeatherTracker,2013-01-05 15:55:00,
2013-01-05 09:00:00,10.4,-6.7,23.56,North,4,0.0,0.0,45,0.00,,,0.00,WeatherTracker,2013-01-05 16:00:00,
2013-01-05 09:06:00,10.9,-6.2,23.56,North,4,0.0,0.0,45,0.00,,,0.00,WeatherTracker,2013-01-05 16:06:00,
2013-01-05 09:10:00,11.8,-5.4,23.56,North,4,0.0,0.0,45,0.00,,,0.00,WeatherTracker,2013-01-05 16:10:00,
2013-01-05 09:16:00,12.6,-4.7,23.56,North,4,0.0,0.0,45,0.00,,,0.00,WeatherTracker,2013-01-05 16:16:00,
2013-01-05 09:25:00,14.2,-1.4,23.56,North,4,0.0,0.0,49,0.00,,,0.00,WeatherTracker,2013-01-05 16:25:00,
2013-01-05 09:31:00,15.3,-0.4,23.56,North,4,0.0,0.0,49,0.00,,,0.00,WeatherTracker,2013-01-05 16:31:00,
2013-01-05 09:41:00,17.2,1.0,23.56,North,4,0.0,0.0,48,0.00,,,0.00,WeatherTracker,2013-01-05 16:41:00,
2013-01-05 09:51:00,18.9,2.0,23.59,North,4,0.0,0.0,47,0.00,,,0.00,WeatherTracker,2013-01-05 16:51:00,
2013-01-05 09:56:00,19.8,2.8,23.59,North,4,0.0,0.0,47,0.00,,,0.00,WeatherTracker,2013-01-05 16:56:00,
2013-01-05 10:06:00,21.2,4.2,23.59,North,4,0.0,0.0,47,0.00,,,0.00,WeatherTracker,2013-01-05 17:06:00,
2013-01-05 10:15:00,22.6,4.5,23.59,North,4,0.0,0.0,45,0.00,,,0.00,WeatherTracker,2013-01-05 17:15:00,
2013-01-05 10:20:00,23.4,5.2,23.59,North,4,0.0,0.0,45,0.00,,,0.00,WeatherTracker,2013-01-05 17:20:00,
2013-01-05 10:26:00,24.1,5.8,23.59,North,4,0.0,0.0,45,0.00,,,0.00,WeatherTracker,2013-01-05 17:26:00,
2013-01-05 10:35:00,25.7,6.3,23.59,North,4,0.0,0.0,43,0.00,,,0.00,WeatherTracker,2013-01-05 17:35:00,
2013-01-05 10:40:00,26.4,6.5,23.59,North,4,0.0,0.0,42,0.00,,,0.00,WeatherTracker,2013-01-05 17:40:00,
2013-01-05 10:45:00,27.7,6.0,23.59,NE,39,0.0,0.0,39,0.00,,,0.00,WeatherTracker,2013-01-05 17:45:00,
2013-01-05 10:50:00,28.8,4.6,23.59,NE,39,0.0,0.0,35,0.00,,,0.00,WeatherTracker,2013-01-05 17:50:00,
2013-01-05 10:55:00,30.9,3.2,23.59,North,5,0.0,0.0,30,0.00,,,0.00,WeatherTracker,2013-01-05 17:55:00,
2013-01-05 11:05:00,32.5,3.1,23.59,South,179,0.0,0.0,28,0.00,,,0.00,WeatherTracker,2013-01-05 18:05:00,
2013-01-05 11:16:00,34.2,3.7,23.59,ESE,117,0.0,0.0,27,0.00,,,0.00,WeatherTracker,2013-01-05 18:16:00,
2013-01-05 11:26:00,35.4,0.4,23.59,South,179,0.0,0.0,22,0.00,,,0.00,WeatherTracker,2013-01-05 18:26:00,
2013-01-05 11:36:00,36.7,1.5,23.56,South,179,0.0,0.0,22,0.00,,,0.00,WeatherTracker,2013-01-05 18:36:00,
2013-01-05 11:45:00,37.8,1.4,23.56,East,86,0.0,0.0,21,0.00,,,0.00,WeatherTracker,2013-01-05 18:45:00,
2013-01-05 11:50:00,37.9,1.5,23.56,ESE,113,0.0,0.0,21,0.00,,,0.00,WeatherTracker,2013-01-05 18:50:00,
2013-01-05 11:55:00,38.5,-0.2,23.56,SW,230,0.0,0.0,19,0.00,,,0.00,WeatherTracker,2013-01-05 18:55:00,
2013-01-05 12:01:00,39.0,-3.3,23.56,NNE,12,0.0,0.0,16,0.00,,,0.00,WeatherTracker,2013-01-05 19:01:00,
2013-01-05 12:10:00,40.6,0.5,23.56,NNE,24,0.0,0.0,18,0.04,,,0.04,WeatherTracker,2013-01-05 19:10:00,
2013-01-05 12:16:00,41.0,-1.7,23.56,NNE,29,0.0,0.0,16,0.04,,,0.04,WeatherTracker,2013-01-05 19:16:00,
2013-01-05 12:26:00,40.8,-1.9,23.56,SSE,168,0.0,0.0,16,0.04,,,0.04,WeatherTracker,2013-01-05 19:26:00,
2013-01-05 12:35:00,41.2,0.9,23.54,South,177,0.0,0.0,18,0.04,,,0.04,WeatherTracker,2013-01-05 19:35:00,
2013-01-05 12:40:00,41.2,0.9,23.54,SSW,205,0.0,0.0,18,0.04,,,0.04,WeatherTracker,2013-01-05 19:40:00,
2013-01-05 12:46:00,41.7,-1.1,23.54,North,5,0.0,0.0,16,0.04,,,0.04,WeatherTracker,2013-01-05 19:46:00,
2013-01-05 12:55:00,43.3,-1.2,23.54,North,9,0.0,0.0,15,0.04,,,0.04,WeatherTracker,2013-01-05 19:55:00,
2013-01-05 13:00:00,43.5,-1.0,23.54,ESE,112,0.0,0.0,15,0.04,,,0.04,WeatherTracker,2013-01-05 20:00:00,
2013-01-05 13:05:00,43.3,-1.2,23.54,East,91,0.0,0.0,15,0.04,,,0.04,WeatherTracker,2013-01-05 20:05:00,
2013-01-05 13:11:00,43.5,-1.0,23.54,East,89,0.0,0.0,15,0.00,,,0.04,WeatherTracker,2013-01-05 20:11:00,
2013-01-05 13:20:00,43.9,-0.7,23.54,South,170,0.0,0.0,15,0.00,,,0.04,WeatherTracker,2013-01-05 20:20:00,
2013-01-05 13:26:00,43.7,3.0,23.54,SE,142,0.0,0.0,18,0.00,,,0.04,WeatherTracker,2013-01-05 20:26:00,
2013-01-05 13:36:00,44.2,-0.4,23.54,ENE,71,0.0,0.0,15,0.00,,,0.04,WeatherTracker,2013-01-05 20:36:00,
2013-01-05 13:45:00,44.8,0.0,23.54,East,97,0.0,0.0,15,0.00,,,0.04,WeatherTracker,2013-01-05 20:45:00,
2013-01-05 13:50:00,44.6,-0.2,23.54,NNW,344,0.0,0.0,15,0.00,,,0.04,WeatherTracker,2013-01-05 20:50:00,
2013-01-05 13:56:00,44.2,-0.4,23.54,NW,311,0.0,3.0,15,0.00,,,0.04,WeatherTracker,2013-01-05 20:56:00,
2013-01-05 14:05:00,43.7,-0.9,23.54,NNE,16,0.0,2.0,15,0.00,,,0.04,WeatherTracker,2013-01-05 21:05:00,
2013-01-05 14:10:00,43.3,-1.2,23.54,NE,47,0.0,0.0,15,0.00,,,0.04,WeatherTracker,2013-01-05 21:10:00,
2013-01-05 14:15:00,43.0,-1.5,23.54,East,79,0.0,0.0,15,0.00,,,0.04,WeatherTracker,2013-01-05 21:15:00,
2013-01-05 14:20:00,42.4,-0.5,23.54,NE,37,0.0,0.0,16,0.00,,,0.04,WeatherTracker,2013-01-05 21:20:00,
2013-01-05 14:25:00,42.3,1.8,23.54,NW,305,0.0,3.0,18,0.00,,,0.04,WeatherTracker,2013-01-05 21:25:00,
2013-01-05 14:36:00,41.5,1.2,23.54,North,353,0.0,0.0,18,0.00,,,0.04,WeatherTracker,2013-01-05 21:36:00,
2013-01-05 14:45:00,41.2,4.2,23.54,East,81,0.0,0.0,21,0.00,,,0.04,WeatherTracker,2013-01-05 21:45:00,
2013-01-05 14:56:00,41.2,4.2,23.54,ENE,57,0.0,0.0,21,0.00,,,0.04,WeatherTracker,2013-01-05 21:56:00,
2013-01-05 15:06:00,41.2,0.9,23.54,East,84,0.0,3.0,18,0.00,,,0.04,WeatherTracker,2013-01-05 22:06:00,
2013-01-05 15:15:00,40.3,3.5,23.54,NE,52,0.0,0.0,21,0.00,,,0.04,WeatherTracker,2013-01-05 22:15:00,
2013-01-05 15:20:00,39.9,3.2,23.54,NNW,341,0.0,0.0,21,0.00,,,0.04,WeatherTracker,2013-01-05 22:20:00,
2013-01-05 15:30:00,39.4,2.7,23.54,NW,316,0.0,0.0,21,0.00,,,0.04,WeatherTracker,2013-01-05 22:30:00,
2013-01-05 15:35:00,39.0,2.4,23.54,NE,54,0.0,0.0,21,0.00,,,0.04,WeatherTracker,2013-01-05 22:35:00,
2013-01-05 15:41:00,38.7,2.1,23.54,North,353,0.0,0.0,21,0.00,,,0.04,WeatherTracker,2013-01-05 22:41:00,
2013-01-05 15:50:00,37.9,4.4,23.56,East,95,0.0,0.0,24,0.00,,,0.04,WeatherTracker,2013-01-05 22:50:00,
2013-01-05 15:56:00,37.6,4.1,23.56,East,87,0.0,0.0,24,0.00,,,0.04,WeatherTracker,2013-01-05 22:56:00,
2013-01-05 16:05:00,36.9,6.0,23.56,WNW,301,0.0,0.0,27,0.00,,,0.04,WeatherTracker,2013-01-05 23:05:00,
2013-01-05 16:10:00,36.5,3.2,23.56,NW,313,0.0,4.0,24,0.00,,,0.04,WeatherTracker,2013-01-05 23:10:00,
2013-01-05 16:16:00,36.3,3.0,23.56,NW,310,0.0,0.0,24,0.00,,,0.04,WeatherTracker,2013-01-05 23:16:00,
2013-01-05 16:25:00,35.8,7.4,23.56,North,357,0.0,0.0,30,0.00,,,0.04,WeatherTracker,2013-01-05 23:25:00,
2013-01-05 16:30:00,35.2,7.7,23.56,North,0,0.0,0.0,31,0.00,,,0.04,WeatherTracker,2013-01-05 23:30:00,
2013-01-05 16:35:00,34.9,7.4,23.56,North,9,0.0,0.0,31,0.00,,,0.04,WeatherTracker,2013-01-05 23:35:00,
2013-01-05 16:41:00,34.5,7.7,23.56,North,9,0.0,0.0,32,0.00,,,0.04,WeatherTracker,2013-01-05 23:41:00,
2013-01-05 16:51:00,34.0,7.9,23.56,North,9,0.0,0.0,33,0.00,,,0.04,WeatherTracker,2013-01-05 23:51:00,
2013-01-05 17:01:00,33.3,8.0,23.56,North,9,0.0,0.0,34,0.00,,,0.04,WeatherTracker,2013-01-06 00:01:00,
2013-01-05 17:10:00,33.1,7.1,23.56,North,9,0.0,0.0,33,0.00,,,0.04,WeatherTracker,2013-01-06 00:10:00,
2013-01-05 17:16:00,32.7,6.8,23.56,North,9,0.0,0.0,33,0.00,,,0.04,WeatherTracker,2013-01-06 00:16:00,
2013-01-05 17:26:00,32.4,6.5,23.56,North,9,0.0,0.0,33,0.00,,,0.04,WeatherTracker,2013-01-06 00:26:00,
2013-01-05 17:35:00,31.6,5.9,23.56,North,9,0.0,0.0,33,0.00,,,0.04,WeatherTracker,2013-01-06 00:35:00,
2013-01-05 17:40:00,31.3,6.2,23.56,North,9,0.0,0.0,34,0.00,,,0.04,WeatherTracker,2013-01-06 00:40:00,
2013-01-05 17:45:00,31.1,5.4,23.56,North,9,0.0,0.0,33,0.00,,,0.04,WeatherTracker,2013-01-06 00:45:00,
2013-01-05 17:50:00,30.6,5.6,23.56,North,9,0.0,0.0,34,0.00,,,0.04,WeatherTracker,2013-01-06 00:50:00,
2013-01-05 17:55:00,30.2,5.9,23.56,North,9,0.0,0.0,35,0.00,,,0.04,WeatherTracker,2013-01-06 00:55:00,
2013-01-05 18:00:00,29.7,5.4,23.56,North,9,0.0,0.0,35,0.00,,,0.04,WeatherTracker,2013-01-06 01:00:00,
2013-01-05 18:05:00,29.5,5.9,23.56,North,9,0.0,0.0,36,0.00,,,0.04,WeatherTracker,2013-01-06 01:05:00,
2013-01-05 18:16:00,28.9,5.4,23.56,North,9,0.0,0.0,36,0.00,,,0.04,WeatherTracker,2013-01-06 01:16:00,
2013-01-05 18:26:00,28.4,5.5,23.56,North,9,0.0,0.0,37,0.00,,,0.04,WeatherTracker,2013-01-06 01:26:00,
2013-01-05 18:36:00,27.7,6.5,23.56,North,9,0.0,0.0,40,0.00,,,0.04,WeatherTracker,2013-01-06 01:36:00,
2013-01-05 18:45:00,27.0,7.0,23.56,North,9,0.0,0.0,42,0.00,,,0.04,WeatherTracker,2013-01-06 01:45:00,
2013-01-05 18:51:00,26.8,7.3,23.56,North,9,0.0,0.0,43,0.00,,,0.04,WeatherTracker,2013-01-06 01:51:00,
2013-01-05 19:01:00,26.6,7.2,23.56,North,9,0.0,0.0,43,0.00,,,0.04,WeatherTracker,2013-01-06 02:01:00,
2013-01-05 19:10:00,26.2,6.8,23.56,North,9,0.0,0.0,43,0.00,,,0.04,WeatherTracker,2013-01-06 02:10:00,
2013-01-05 19:20:00,25.9,6.5,23.56,North,9,0.0,0.0,43,0.00,,,0.04,WeatherTracker,2013-01-06 02:20:00,
2013-01-05 19:26:00,25.9,6.5,23.56,North,9,0.0,0.0,43,0.00,,,0.04,WeatherTracker,2013-01-06 02:26:00,
2013-01-05 19:36:00,25.5,6.2,23.56,North,9,0.0,0.0,43,0.00,,,0.04,WeatherTracker,2013-01-06 02:36:00,
2013-01-05 19:45:00,25.3,6.5,23.56,North,9,0.0,0.0,44,0.00,,,0.04,WeatherTracker,2013-01-06 02:45:00,
2013-01-05 19:51:00,25.0,6.2,23.56,North,9,0.0,0.0,44,0.00,,,0.04,WeatherTracker,2013-01-06 02:51:00,
2013-01-05 19:56:00,24.6,6.3,23.56,North,9,0.0,0.0,45,0.00,,,0.04,WeatherTracker,2013-01-06 02:56:00,
2013-01-05 20:05:00,24.3,6.0,23.56,North,9,0.0,0.0,45,0.00,,,0.04,WeatherTracker,2013-01-06 03:05:00,
2013-01-05 20:10:00,24.1,5.8,23.56,North,9,0.0,0.0,45,0.00,,,0.04,WeatherTracker,2013-01-06 03:10:00,
2013-01-05 20:15:00,23.9,5.7,23.56,North,9,0.0,0.0,45,0.00,,,0.04,WeatherTracker,2013-01-06 03:15:00,
2013-01-05 20:21:00,23.5,5.4,23.56,North,9,0.0,0.0,45,0.00,,,0.04,WeatherTracker,2013-01-06 03:21:00,
2013-01-05 20:31:00,23.0,5.3,23.56,North,9,0.0,0.0,46,0.00,,,0.04,WeatherTracker,2013-01-06 03:31:00,
2013-01-05 20:40:00,22.8,5.2,23.56,North,9,0.0,0.0,46,0.00,,,0.04,WeatherTracker,2013-01-06 03:40:00,
2013-01-05 20:46:00,22.6,5.0,23.56,North,9,0.0,0.0,46,0.00,,,0.04,WeatherTracker,2013-01-06 03:46:00,
2013-01-05 20:56:00,22.1,4.5,23.56,North,9,0.0,0.0,46,0.00,,,0.04,WeatherTracker,2013-01-06 03:56:00,
2013-01-05 21:06:00,21.7,4.6,23.56,North,9,0.0,0.0,47,0.00,,,0.04,WeatherTracker,2013-01-06 04:06:00,
2013-01-05 21:15:00,21.4,4.3,23.54,North,9,0.0,0.0,47,0.00,,,0.04,WeatherTracker,2013-01-06 04:15:00,
2013-01-05 21:21:00,21.2,4.2,23.54,North,9,0.0,0.0,47,0.00,,,0.04,WeatherTracker,2013-01-06 04:21:00,
2013-01-05 21:30:00,21.2,4.2,23.54,North,9,0.0,0.0,47,0.00,,,0.04,WeatherTracker,2013-01-06 04:30:00,
2013-01-05 21:35:00,21.0,4.0,23.54,North,9,0.0,0.0,47,0.00,,,0.04,WeatherTracker,2013-01-06 04:35:00,
2013-01-05 21:45:00,20.7,3.7,23.54,North,9,0.0,0.0,47,0.00,,,0.04,WeatherTracker,2013-01-06 04:45:00,
2013-01-05 21:50:00,20.3,3.8,23.54,North,9,0.0,0.0,48,0.00,,,0.04,WeatherTracker,2013-01-06 04:50:00,
2013-01-05 21:55:00,20.1,3.2,23.54,North,9,0.0,0.0,47,0.00,,,0.04,WeatherTracker,2013-01-06 04:55:00,
2013-01-05 22:00:00,20.1,3.2,23.54,North,9,0.0,0.0,47,0.00,,,0.04,WeatherTracker,2013-01-06 05:00:00,
2013-01-05 22:06:00,19.8,3.3,23.54,North,9,0.0,0.0,48,0.00,,,0.04,WeatherTracker,2013-01-06 05:06:00,
2013-01-05 22:11:00,19.8,3.3,23.54,North,9,0.0,0.0,48,0.00,,,0.04,WeatherTracker,2013-01-06 05:11:00,
2013-01-05 22:16:00,19.8,3.3,23.54,North,9,0.0,0.0,48,0.00,,,0.04,WeatherTracker,2013-01-06 05:16:00,
2013-01-05 22:25:00,19.4,3.4,23.54,North,9,0.0,0.0,49,0.00,,,0.04,WeatherTracker,2013-01-06 05:25:00,
2013-01-05 22:30:00,19.0,3.1,23.56,North,9,0.0,0.0,49,0.00,,,0.04,WeatherTracker,2013-01-06 05:30:00,
2013-01-05 22:36:00,18.5,2.6,23.56,North,9,0.0,0.0,49,0.00,,,0.04,WeatherTracker,2013-01-06 05:36:00,
2013-01-05 22:41:00,18.5,2.6,23.56,North,9,0.0,0.0,49,0.00,,,0.04,WeatherTracker,2013-01-06 05:41:00,
2013-01-05 22:46:00,18.5,2.6,23.54,North,9,0.0,0.0,49,0.00,,,0.04,WeatherTracker,2013-01-06 05:46:00,
2013-01-05 22:51:00,18.3,2.4,23.54,North,9,0.0,0.0,49,0.00,,,0.04,WeatherTracker,2013-01-06 05:51:00,
2013-01-05 22:56:00,18.1,2.2,23.54,North,9,0.0,0.0,49,0.00,,,0.04,WeatherTracker,2013-01-06 05:56:00,
2013-01-05 23:06:00,17.6,1.7,23.54,North,9,0.0,0.0,49,0.00,,,0.04,WeatherTracker,2013-01-06 06:06:00,
2013-01-05 23:15:00,17.6,1.7,23.54,North,9,0.0,0.0,49,0.00,,,0.04,WeatherTracker,2013-01-06 06:15:00,
2013-01-05 23:21:00,17.2,1.4,23.54,North,9,0.0,0.0,49,0.00,,,0.04,WeatherTracker,2013-01-06 06:21:00,
2013-01-05 23:26:00,16.9,1.1,23.54,North,9,0.0,0.0,49,0.00,,,0.04,WeatherTracker,2013-01-06 06:26:00,
2013-01-05 23:35:00,16.7,1.8,23.54,North,9,0.0,0.0,51,0.00,,,0.04,WeatherTracker,2013-01-06 06:35:00,
2013-01-05 23:41:00,16.5,1.2,23.54,North,9,0.0,0.0,50,0.00,,,0.04,WeatherTracker,2013-01-06 06:41:00,
2013-01-05 23:50:00,16.5,1.2,23.54,East,101,0.0,0.0,50,0.00,,,0.04,WeatherTracker,2013-01-06 06:50:00,
2013-01-05 23:56:00,16.5,1.2,23.54,East,101,0.0,0.0,50,0.00,,,0.04,WeatherTracker,2013-01-06 06:56:00,